CFMGP CYMU-CYVP

Flight info

Callsign CFMGP
Flight time 1h 1m
Altitude 25000
Route CYVP
Aircraft B350/L-SBGRWY/S

Departure

Time 2026-04-30 19:49
Airport Umiujaq Airport (CYMU)

Arrival

Time 2026-04-30 20:51
Airport Kuujjuaq Airport (CYVP)
Time Latitude Longitude Altitude Speed Heading
2026-04-30 19:33 56.53928 -76.51925 265 ft 0 kts 166°
2026-04-30 19:46 56.53927 -76.51925 261 ft 0 kts 168°
2026-04-30 19:47 56.53911 -76.51815 270 ft 16 kts 93°
2026-04-30 19:47 56.53966 -76.51756 268 ft 17 kts
2026-04-30 19:47 56.54086 -76.51732 264 ft 3 kts 207°
2026-04-30 19:47 56.54080 -76.51732 264 ft 0 kts 184°
2026-04-30 19:48 56.53946 -76.51757 269 ft 58 kts 188°
2026-04-30 19:48 56.53330 -76.51892 332 ft 110 kts 187°
2026-04-30 19:49 56.52515 -76.52022 721 ft 131 kts 185°
2026-04-30 19:49 56.50968 -76.50688 1973 ft 140 kts 117°
2026-04-30 19:49 56.50818 -76.48841 2337 ft 160 kts 76°
2026-04-30 19:50 56.51490 -76.47239 2887 ft 166 kts 33°
2026-04-30 19:50 56.52537 -76.46318 3444 ft 169 kts 24°
2026-04-30 19:50 56.53616 -76.45466 4003 ft 170 kts 28°
2026-04-30 19:50 56.54578 -76.44283 4523 ft 170 kts 44°
2026-04-30 19:51 56.55366 -76.42683 5048 ft 171 kts 55°
2026-04-30 19:51 56.56015 -76.40837 5577 ft 172 kts 63°
2026-04-30 19:51 56.56560 -76.38934 6086 ft 172 kts 66°
2026-04-30 19:51 56.57065 -76.36954 6583 ft 174 kts 68°
2026-04-30 19:52 56.57551 -76.34939 7074 ft 175 kts 69°
2026-04-30 19:52 56.58034 -76.32886 7548 ft 178 kts 69°
2026-04-30 19:52 56.58518 -76.30810 8051 ft 180 kts 70°
2026-04-30 19:52 56.59004 -76.28709 8556 ft 182 kts 69°
2026-04-30 19:53 56.59495 -76.26581 9076 ft 184 kts 70°
2026-04-30 19:53 56.59993 -76.24434 9593 ft 186 kts 70°
2026-04-30 19:53 56.60495 -76.22257 10074 ft 188 kts 70°
2026-04-30 19:53 56.61004 -76.20049 10543 ft 191 kts 70°
2026-04-30 19:54 56.61519 -76.17809 11021 ft 193 kts 70°
2026-04-30 19:54 56.62041 -76.15543 11496 ft 195 kts 70°
2026-04-30 19:54 56.62569 -76.13249 11969 ft 198 kts 71°
2026-04-30 19:54 56.63105 -76.10916 12448 ft 201 kts 71°
2026-04-30 19:55 56.63645 -76.08558 12926 ft 203 kts 71°
2026-04-30 19:55 56.64185 -76.06201 13397 ft 206 kts 71°
2026-04-30 19:55 56.64738 -76.03787 13863 ft 208 kts 71°
2026-04-30 19:55 56.65298 -76.01343 14295 ft 210 kts 71°
2026-04-30 19:56 56.65860 -75.98886 14731 ft 211 kts 71°
2026-04-30 19:56 56.66426 -75.96406 15162 ft 213 kts 71°
2026-04-30 19:56 56.66997 -75.93905 15611 ft 215 kts 72°
2026-04-30 19:56 56.67570 -75.91386 16050 ft 216 kts 72°
2026-04-30 19:57 56.68148 -75.88844 16476 ft 218 kts 72°
2026-04-30 19:57 56.68729 -75.86284 16901 ft 220 kts 72°
2026-04-30 19:57 56.69307 -75.83737 17326 ft 221 kts 72°
2026-04-30 19:57 56.69897 -75.81135 17744 ft 223 kts 72°
2026-04-30 19:58 56.70489 -75.78519 18161 ft 224 kts 72°
2026-04-30 19:58 56.71085 -75.75878 18527 ft 226 kts 72°
2026-04-30 19:58 56.71686 -75.73217 18878 ft 228 kts 72°
2026-04-30 19:58 56.72293 -75.70528 19217 ft 230 kts 72°
2026-04-30 19:59 56.72901 -75.67824 19564 ft 232 kts 73°
2026-04-30 19:59 56.73517 -75.65089 19894 ft 234 kts 73°
2026-04-30 19:59 56.74755 -75.59578 20547 ft 238 kts 73°
2026-04-30 20:00 56.75382 -75.56779 20868 ft 240 kts 73°
2026-04-30 20:00 56.76016 -75.53948 21197 ft 242 kts 73°
2026-04-30 20:00 56.76652 -75.51101 21516 ft 244 kts 73°
2026-04-30 20:00 56.77294 -75.48225 21821 ft 245 kts 73°
2026-04-30 20:01 56.78589 -75.42409 22476 ft 249 kts 73°
2026-04-30 20:01 56.79245 -75.39460 22863 ft 252 kts 74°
2026-04-30 20:01 56.79904 -75.36484 23242 ft 254 kts 74°
2026-04-30 20:02 56.81239 -75.30449 23922 ft 258 kts 74°
2026-04-30 20:02 56.81913 -75.27395 24229 ft 260 kts 74°
2026-04-30 20:03 56.83275 -75.21218 24841 ft 264 kts 74°
2026-04-30 20:03 56.83971 -75.18044 24939 ft 276 kts 74°
2026-04-30 20:03 56.84685 -75.14759 24958 ft 288 kts 74°
2026-04-30 20:03 56.85439 -75.11278 24966 ft 299 kts 74°
2026-04-30 20:04 56.86221 -75.07689 24963 ft 309 kts 73°
2026-04-30 20:04 56.87027 -75.03993 24968 ft 316 kts 73°
2026-04-30 20:04 56.87851 -75.00218 24967 ft 322 kts 73°
2026-04-30 20:05 56.89534 -74.92499 24970 ft 331 kts 73°
2026-04-30 20:05 56.90391 -74.88558 24970 ft 334 kts 73°
2026-04-30 20:05 56.92115 -74.80599 24969 ft 339 kts 73°
2026-04-30 20:06 56.92982 -74.76579 24966 ft 340 kts 73°
2026-04-30 20:06 56.93854 -74.72536 24970 ft 341 kts 73°
2026-04-30 20:06 56.94725 -74.68485 24971 ft 343 kts 73°
2026-04-30 20:06 56.95598 -74.64415 24971 ft 344 kts 73°
2026-04-30 20:07 56.96471 -74.60335 24970 ft 344 kts 73°
2026-04-30 20:07 56.97344 -74.56245 24975 ft 345 kts 73°
2026-04-30 20:07 56.99082 -74.48077 24971 ft 346 kts 74°
2026-04-30 20:08 56.99955 -74.43962 24967 ft 347 kts 73°
2026-04-30 20:08 57.00830 -74.39832 24967 ft 347 kts 73°
2026-04-30 20:08 57.01705 -74.35696 24971 ft 347 kts 74°
2026-04-30 20:08 57.02578 -74.31554 24976 ft 348 kts 74°
2026-04-30 20:09 57.03450 -74.27410 24971 ft 348 kts 74°
2026-04-30 20:09 57.04324 -74.23247 24972 ft 349 kts 74°
2026-04-30 20:09 57.06070 -74.14911 24972 ft 349 kts 74°
2026-04-30 20:10 57.07812 -74.06560 24977 ft 350 kts 74°
2026-04-30 20:10 57.08683 -74.02370 24975 ft 351 kts 74°
2026-04-30 20:10 57.09542 -73.98227 24976 ft 351 kts 74°
2026-04-30 20:11 57.11282 -73.89812 24981 ft 352 kts 74°
2026-04-30 20:11 57.12150 -73.85603 24976 ft 352 kts 74°
2026-04-30 20:11 57.13019 -73.81383 24979 ft 352 kts 74°
2026-04-30 20:12 57.14741 -73.72988 24979 ft 353 kts 74°
2026-04-30 20:12 57.15607 -73.68747 24979 ft 353 kts 74°
2026-04-30 20:12 57.16471 -73.64512 24976 ft 353 kts 74°
2026-04-30 20:13 57.17334 -73.60272 24978 ft 354 kts 74°
2026-04-30 20:13 57.18111 -73.56447 24980 ft 354 kts 75°
2026-04-30 20:13 57.18975 -73.52190 24978 ft 354 kts 75°
2026-04-30 20:13 57.19838 -73.47922 24979 ft 354 kts 75°
2026-04-30 20:14 57.20699 -73.43658 24978 ft 355 kts 75°
2026-04-30 20:14 57.21558 -73.39390 24979 ft 355 kts 75°
2026-04-30 20:14 57.22416 -73.35120 24982 ft 355 kts 75°
2026-04-30 20:14 57.23275 -73.30839 24980 ft 356 kts 75°
2026-04-30 20:15 57.24133 -73.26551 24982 ft 356 kts 75°
2026-04-30 20:15 57.24978 -73.22317 24978 ft 356 kts 75°
2026-04-30 20:15 57.25837 -73.18005 24979 ft 357 kts 75°
2026-04-30 20:15 57.26699 -73.13704 24977 ft 357 kts 75°
2026-04-30 20:16 57.27552 -73.09387 24980 ft 357 kts 75°
2026-04-30 20:16 57.28403 -73.05077 24978 ft 357 kts 75°
2026-04-30 20:16 57.28967 -73.02218 24983 ft 357 kts 75°
2026-04-30 20:16 57.29820 -72.97889 24982 ft 358 kts 75°
2026-04-30 20:17 57.30671 -72.93568 24980 ft 358 kts 75°
2026-04-30 20:17 57.31522 -72.89236 24980 ft 358 kts 75°
2026-04-30 20:17 57.32371 -72.84902 24984 ft 358 kts 75°
2026-04-30 20:17 57.33221 -72.80559 24987 ft 359 kts 75°
2026-04-30 20:18 57.34068 -72.76216 24986 ft 359 kts 75°
2026-04-30 20:18 57.34914 -72.71866 24985 ft 359 kts 75°
2026-04-30 20:18 57.35763 -72.67495 24984 ft 359 kts 75°
2026-04-30 20:18 57.36609 -72.63132 24984 ft 360 kts 75°
2026-04-30 20:19 57.37454 -72.58760 24985 ft 360 kts 75°
2026-04-30 20:19 57.38296 -72.54395 24990 ft 360 kts 75°
2026-04-30 20:19 57.39129 -72.50073 24986 ft 361 kts 75°
2026-04-30 20:19 57.39970 -72.45690 24988 ft 361 kts 75°
2026-04-30 20:20 57.40811 -72.41299 24986 ft 361 kts 75°
2026-04-30 20:20 57.41650 -72.36908 24987 ft 361 kts 75°
2026-04-30 20:20 57.42489 -72.32509 24986 ft 362 kts 75°
2026-04-30 20:20 57.43327 -72.28104 24988 ft 362 kts 75°
2026-04-30 20:21 57.44164 -72.23699 24985 ft 362 kts 75°
2026-04-30 20:21 57.44999 -72.19289 24990 ft 362 kts 75°
2026-04-30 20:21 57.45834 -72.14870 24988 ft 363 kts 75°
2026-04-30 20:21 57.46667 -72.10451 24989 ft 363 kts 75°
2026-04-30 20:22 57.47501 -72.06019 24989 ft 363 kts 75°
2026-04-30 20:22 57.48331 -72.01593 24987 ft 363 kts 75°
2026-04-30 20:22 57.49164 -71.97147 24989 ft 364 kts 75°
2026-04-30 20:22 57.49996 -71.92691 24987 ft 364 kts 75°
2026-04-30 20:23 57.50825 -71.88246 24995 ft 364 kts 75°
2026-04-30 20:23 57.51651 -71.83801 24990 ft 364 kts 76°
2026-04-30 20:23 57.52477 -71.79340 24992 ft 364 kts 76°
2026-04-30 20:23 57.53161 -71.74825 24997 ft 361 kts 82°
2026-04-30 20:24 57.53700 -71.70261 24994 ft 361 kts 84°
2026-04-30 20:24 57.54193 -71.65722 24924 ft 364 kts 84°
2026-04-30 20:24 57.54695 -71.61022 24801 ft 368 kts 84°
2026-04-30 20:24 57.55203 -71.56306 24560 ft 374 kts 84°
2026-04-30 20:25 57.56252 -71.46758 23934 ft 381 kts 83°
2026-04-30 20:25 57.56791 -71.41929 23579 ft 381 kts 83°
2026-04-30 20:26 57.57868 -71.32290 22749 ft 379 kts 83°
2026-04-30 20:26 57.58936 -71.22689 21938 ft 376 kts 83°
2026-04-30 20:26 57.59456 -71.17982 21545 ft 375 kts 83°
2026-04-30 20:27 57.60499 -71.08475 20760 ft 373 kts 83°
2026-04-30 20:27 57.61528 -70.99023 20010 ft 370 kts 83°
2026-04-30 20:28 57.62542 -70.89644 19269 ft 367 kts 83°
2026-04-30 20:28 57.63543 -70.80332 18550 ft 364 kts 82°
2026-04-30 20:29 57.64528 -70.71065 17772 ft 363 kts 82°
2026-04-30 20:30 57.65978 -70.57352 16422 ft 355 kts 82°
2026-04-30 20:30 57.67378 -70.43994 14898 ft 344 kts 82°
2026-04-30 20:31 57.68724 -70.30971 13403 ft 336 kts 82°
2026-04-30 20:32 57.70031 -70.18251 11820 ft 324 kts 82°
2026-04-30 20:32 57.70866 -70.10155 10807 ft 311 kts 82°
2026-04-30 20:33 57.71265 -70.06203 10312 ft 306 kts 82°
2026-04-30 20:33 57.72026 -69.98631 9306 ft 270 kts 82°
2026-04-30 20:33 57.72362 -69.95268 8749 ft 268 kts 82°
2026-04-30 20:34 57.73067 -69.88128 7710 ft 284 kts 82°
2026-04-30 20:34 57.73777 -69.80864 6848 ft 283 kts 82°
2026-04-30 20:35 57.74130 -69.77296 6624 ft 275 kts 82°
2026-04-30 20:35 57.74477 -69.73810 6398 ft 270 kts 82°
2026-04-30 20:35 57.75146 -69.67005 5913 ft 262 kts 82°
2026-04-30 20:36 57.75471 -69.63653 5673 ft 259 kts 82°
2026-04-30 20:36 57.75792 -69.60342 5440 ft 257 kts 82°
2026-04-30 20:36 57.76425 -69.53791 4969 ft 254 kts 82°
2026-04-30 20:37 57.76737 -69.50546 4739 ft 252 kts 82°
2026-04-30 20:37 57.77039 -69.47360 4497 ft 251 kts 82°
2026-04-30 20:37 57.77348 -69.44153 4249 ft 250 kts 82°
2026-04-30 20:37 57.77653 -69.40950 4014 ft 249 kts 82°
2026-04-30 20:38 57.77956 -69.37760 3774 ft 248 kts 82°
2026-04-30 20:38 57.78253 -69.34622 3729 ft 240 kts 82°
2026-04-30 20:38 57.78544 -69.31588 3716 ft 234 kts 82°
2026-04-30 20:39 57.79107 -69.25554 3700 ft 236 kts 82°
2026-04-30 20:39 57.79388 -69.22527 3699 ft 236 kts 82°
2026-04-30 20:39 57.79670 -69.19493 3701 ft 237 kts 82°
2026-04-30 20:40 57.80232 -69.13431 3701 ft 238 kts 82°
2026-04-30 20:40 57.80515 -69.10376 3700 ft 238 kts 82°
2026-04-30 20:40 57.80797 -69.07320 3706 ft 238 kts 82°
2026-04-30 20:41 57.81361 -69.01193 3701 ft 238 kts 82°
2026-04-30 20:41 57.81642 -68.98126 3703 ft 238 kts 82°
2026-04-30 20:41 57.81924 -68.95065 3656 ft 240 kts 82°
2026-04-30 20:41 57.82209 -68.91942 3428 ft 245 kts 82°
2026-04-30 20:42 57.82495 -68.88812 3193 ft 248 kts 82°
2026-04-30 20:42 57.82785 -68.85607 2954 ft 250 kts 82°
2026-04-30 20:42 57.83709 -68.79390 2476 ft 253 kts 56°
2026-04-30 20:43 57.84987 -68.77302 2231 ft 234 kts 28°
2026-04-30 20:43 57.86347 -68.75904 1985 ft 213 kts 31°
2026-04-30 20:43 57.87529 -68.74502 1917 ft 188 kts 32°
2026-04-30 20:44 57.89587 -68.72129 1907 ft 165 kts 31°
2026-04-30 20:44 57.90584 -68.71013 1900 ft 168 kts 31°
2026-04-30 20:44 57.92594 -68.68735 1901 ft 169 kts 31°
2026-04-30 20:45 57.94554 -68.66479 1901 ft 152 kts 32°
2026-04-30 20:45 57.95401 -68.65506 1891 ft 135 kts 31°
2026-04-30 20:45 57.96164 -68.64597 1891 ft 126 kts 36°
2026-04-30 20:46 57.98087 -68.61413 1888 ft 121 kts 42°
2026-04-30 20:46 57.98707 -68.60344 1893 ft 120 kts 42°
2026-04-30 20:47 57.99943 -68.58238 1894 ft 122 kts 42°
2026-04-30 20:47 58.00590 -68.57142 1914 ft 129 kts 42°
2026-04-30 20:48 58.01966 -68.54814 1904 ft 135 kts 42°
2026-04-30 20:48 58.02680 -68.53609 1780 ft 141 kts 42°
2026-04-30 20:48 58.03400 -68.52390 1571 ft 134 kts 41°
2026-04-30 20:48 58.04073 -68.51235 1376 ft 128 kts 43°
2026-04-30 20:49 58.04721 -68.50126 1163 ft 127 kts 43°
2026-04-30 20:49 58.05370 -68.48994 962 ft 120 kts 40°
2026-04-30 20:49 58.05970 -68.48051 800 ft 110 kts 33°
2026-04-30 20:50 58.07108 -68.46287 473 ft 107 kts 51°
2026-04-30 20:50 58.07595 -68.45282 357 ft 102 kts 41°
2026-04-30 20:50 58.08106 -68.44402 222 ft 96 kts 39°
2026-04-30 20:50 58.08594 -68.43583 96 ft 91 kts 38°
2026-04-30 20:51 58.08918 -68.43024 88 ft 23 kts 45°
2026-04-30 20:51 58.09193 -68.42547 83 ft 25 kts 45°
2026-04-30 20:51 58.09303 -68.42348 83 ft 19 kts 46°
2026-04-30 20:52 58.09389 -68.42187 87 ft 15 kts 41°
2026-04-30 20:52 58.09458 -68.42071 87 ft 13 kts 41°
2026-04-30 20:52 58.09577 -68.41873 84 ft 11 kts 43°
2026-04-30 20:53 58.09634 -68.41772 81 ft 11 kts 43°
2026-04-30 20:53 58.09686 -68.41691 83 ft 8 kts 29°
2026-04-30 20:53 58.09727 -68.41708 83 ft 6 kts 320°
2026-04-30 20:54 58.09781 -68.41819 85 ft 5 kts 309°
2026-04-30 20:54 58.09798 -68.41858 87 ft 6 kts 312°
2026-04-30 20:54 58.09849 -68.41959 100 ft 9 kts 311°
2026-04-30 20:55 58.09902 -68.41988 108 ft 5 kts 13°
2026-04-30 20:55 58.09925 -68.41966 109 ft 3 kts 28°
2026-04-30 20:55 58.09961 -68.41934 112 ft 6 kts 23°
2026-04-30 20:56 58.10010 -68.41896 115 ft 10 kts 43°
2026-04-30 20:56 58.10017 -68.41850 114 ft 0 kts 130°